Time;durP1;ratioP1;P1;durP2;ratioP2;P2;SDS_P1;SDS_P2;PMS_P1;PMS_P2;Temp;Humidity;BMP_temperature;BMP_pressure;BME280_temperature;BME280_humidity;BME280_pressure;Samples;Min_cycle;Max_cycle;Signal;HPM_P1;HPM_P2
2022/08/27 00:01:07;;;;;;;11.43;9.63;;;;;;;;;;4959549;28;20235;-60
2022/08/27 00:03:33;;;;;;;10.57;9.52;;;;;;;;;;4962196;28;20239;-60
2022/08/27 00:06:00;;;;;;;10.10;9.13;;;;;;;;;;4963965;28;20238;-60
2022/08/27 00:08:26;;;;;;;10.48;9.38;;;;;;;;;;4965453;28;20283;-60
2022/08/27 00:10:54;;;;;;;10.48;9.13;;;;;;;;;;4961856;28;20245;-60
2022/08/27 00:13:20;;;;;;;9.05;8.18;;;;;;;;;;4951233;28;21491;-60
2022/08/27 00:15:47;;;;;;;12.43;11.00;;;;;;;;;;4966115;28;20226;-60
2022/08/27 00:18:13;;;;;;;10.15;9.15;;;;;;;;;;4958901;28;20772;-59
2022/08/27 00:20:40;;;;;;;12.23;10.82;;;;;;;;;;4966328;28;20238;-60
2022/08/27 00:23:06;;;;;;;10.77;9.98;;;;;;;;;;4957729;28;20267;-59
2022/08/27 00:25:32;;;;;;;11.38;10.38;;;;;;;;;;4957301;28;20239;-59
2022/08/27 00:28:00;;;;;;;12.35;11.10;;;;;;;;;;4965774;28;20241;-59
2022/08/27 00:30:26;;;;;;;11.52;10.10;;;;;;;;;;4955932;28;20610;-59
2022/08/27 00:32:53;;;;;;;10.88;9.80;;;;;;;;;;4964492;28;20234;-57
2022/08/27 00:35:19;;;;;;;9.98;8.98;;;;;;;;;;4957153;28;20732;-58
2022/08/27 00:37:45;;;;;;;10.73;9.32;;;;;;;;;;4958248;28;20235;-59
2022/08/27 00:40:17;;;;;;;9.30;8.50;;;;;;;;;;4964678;28;20230;-58
2022/08/27 00:42:44;;;;;;;10.95;9.20;;;;;;;;;;4967411;28;20239;-60
2022/08/27 00:45:14;;;;;;;11.07;10.02;;;;;;;;;;4961032;28;20330;-59
2022/08/27 00:47:42;;;;;;;10.20;9.23;;;;;;;;;;4955793;28;20231;-59
2022/08/27 00:50:10;;;;;;;11.48;9.57;;;;;;;;;;4960048;28;20888;-59
2022/08/27 00:52:41;;;;;;;10.13;9.32;;;;;;;;;;4958893;28;20652;-59
2022/08/27 00:55:10;;;;;;;10.73;9.82;;;;;;;;;;4955433;28;20227;-60
2022/08/27 00:57:37;;;;;;;11.85;10.63;;;;;;;;;;4955030;28;20234;-61
2022/08/27 01:00:04;;;;;;;11.23;10.23;;;;;;;;;;4954736;28;20231;-59
2022/08/27 01:02:32;;;;;;;10.80;9.73;;;;;;;;;;4958127;28;20249;-59
2022/08/27 01:05:00;;;;;;;10.75;9.70;;;;;;;;;;4952617;28;20239;-60
2022/08/27 01:07:28;;;;;;;12.40;10.95;;;;;;;;;;4962450;28;20239;-59
2022/08/27 01:09:57;;;;;;;12.70;11.43;;;;;;;;;;4959614;28;20235;-60
2022/08/27 01:12:24;;;;;;;10.93;10.00;;;;;;;;;;4952208;28;20245;-59
2022/08/27 01:14:50;;;;;;;11.93;10.50;;;;;;;;;;4956016;28;20231;-59
2022/08/27 01:17:17;;;;;;;11.20;10.13;;;;;;;;;;4959441;28;20241;-59
2022/08/27 01:19:46;;;;;;;11.98;10.57;;;;;;;;;;4963585;28;20718;-59
2022/08/27 01:22:15;;;;;;;13.75;10.45;;;;;;;;;;4962808;28;20265;-59
2022/08/27 01:24:44;;;;;;;11.50;10.35;;;;;;;;;;4961717;28;20245;-61
2022/08/27 01:27:12;;;;;;;11.73;10.57;;;;;;;;;;4950726;28;20735;-60
2022/08/27 01:29:38;;;;;;;10.55;9.55;;;;;;;;;;4952490;28;20238;-59
2022/08/27 01:32:07;;;;;;;11.00;9.88;;;;;;;;;;4957544;28;20920;-60
2022/08/27 01:34:33;;;;;;;11.73;10.63;;;;;;;;;;4953982;28;20245;-60
2022/08/27 01:37:00;;;;;;;11.27;10.38;;;;;;;;;;4961371;28;20241;-59
2022/08/27 01:39:26;;;;;;;12.40;10.38;;;;;;;;;;4956669;28;20235;-61
2022/08/27 01:41:56;;;;;;;13.40;10.25;;;;;;;;;;4960762;28;20246;-60
2022/08/27 01:44:22;;;;;;;13.23;11.63;;;;;;;;;;4954885;28;20245;-60
2022/08/27 01:46:49;;;;;;;12.63;11.27;;;;;;;;;;4958038;28;20250;-60
2022/08/27 01:49:15;;;;;;;12.23;10.80;;;;;;;;;;4967252;28;20235;-60
2022/08/27 01:51:41;;;;;;;12.65;11.45;;;;;;;;;;4957022;28;20235;-60
2022/08/27 01:54:08;;;;;;;13.02;11.75;;;;;;;;;;4959443;28;20230;-59
2022/08/27 01:56:34;;;;;;;15.00;11.70;;;;;;;;;;4957349;28;20647;-61
2022/08/27 01:59:02;;;;;;;13.55;11.35;;;;;;;;;;4961080;28;20240;-59
2022/08/27 02:01:28;;;;;;;11.38;10.25;;;;;;;;;;4957343;28;20249;-59
2022/08/27 02:03:55;;;;;;;12.75;11.48;;;;;;;;;;4961767;28;20700;-59
2022/08/27 02:06:21;;;;;;;14.98;13.50;;;;;;;;;;4961765;28;20603;-60
2022/08/27 02:08:47;;;;;;;18.30;13.15;;;;;;;;;;4960842;28;20242;-59
2022/08/27 02:11:13;;;;;;;13.98;12.55;;;;;;;;;;4964351;28;20233;-59
2022/08/27 02:13:40;;;;;;;15.38;12.38;;;;;;;;;;4963494;28;20614;-60
2022/08/27 02:16:08;;;;;;;13.60;12.30;;;;;;;;;;4955444;28;20234;-60
2022/08/27 02:18:35;;;;;;;20.67;14.02;;;;;;;;;;4962203;28;20454;-60
2022/08/27 02:21:02;;;;;;;16.50;13.65;;;;;;;;;;4955871;28;20325;-60
2022/08/27 02:23:28;;;;;;;15.50;13.63;;;;;;;;;;4963425;28;20252;-59
2022/08/27 02:25:54;;;;;;;15.73;13.10;;;;;;;;;;4951779;28;20247;-60
2022/08/27 02:28:21;;;;;;;16.15;14.25;;;;;;;;;;4961766;28;20235;-62
2022/08/27 02:30:47;;;;;;;17.92;14.15;;;;;;;;;;4952489;28;20289;-60
2022/08/27 02:33:15;;;;;;;15.20;13.70;;;;;;;;;;4956741;28;20819;-59
2022/08/27 02:35:43;;;;;;;15.80;14.05;;;;;;;;;;4963566;28;20242;-60
2022/08/27 02:38:09;;;;;;;18.85;14.40;;;;;;;;;;4956268;28;20321;-58
2022/08/27 02:40:36;;;;;;;15.80;14.10;;;;;;;;;;4954182;28;20224;-59
2022/08/27 02:43:02;;;;;;;16.75;15.13;;;;;;;;;;4960026;28;20238;-59
2022/08/27 02:45:29;;;;;;;19.80;15.07;;;;;;;;;;4958101;28;20318;-60
2022/08/27 02:47:55;;;;;;;18.05;15.00;;;;;;;;;;4958696;28;20246;-58
2022/08/27 02:50:23;;;;;;;18.85;16.63;;;;;;;;;;4957252;28;20242;-60
2022/08/27 02:52:49;;;;;;;18.42;14.40;;;;;;;;;;4955596;28;20247;-60
2022/08/27 02:55:16;;;;;;;20.05;15.05;;;;;;;;;;4953143;28;20231;-59
2022/08/27 02:57:42;;;;;;;17.02;15.32;;;;;;;;;;4957066;28;20598;-61
2022/08/27 03:00:10;;;;;;;23.05;17.77;;;;;;;;;;4954109;28;20234;-60
2022/08/27 03:02:37;;;;;;;19.77;17.65;;;;;;;;;;4967815;28;20261;-59
2022/08/27 03:05:04;;;;;;;22.85;17.13;;;;;;;;;;4963520;28;20317;-59
2022/08/27 03:07:32;;;;;;;19.08;16.25;;;;;;;;;;4967337;28;20249;-61
2022/08/27 03:09:58;;;;;;;26.02;19.33;;;;;;;;;;4965460;28;20685;-60
2022/08/27 03:12:25;;;;;;;18.08;16.23;;;;;;;;;;4952992;28;20239;-60
2022/08/27 03:14:51;;;;;;;23.80;19.50;;;;;;;;;;4955330;28;20242;-59
2022/08/27 03:20:03;;;;;;;22.52;19.00;;;;;;;;;;4955246;28;20313;-60
2022/08/27 03:22:29;;;;;;;21.20;18.38;;;;;;;;;;4966928;28;20231;-60
2022/08/27 03:24:57;;;;;;;25.48;19.08;;;;;;;;;;4968478;28;20238;-60
2022/08/27 03:27:23;;;;;;;25.27;19.70;;;;;;;;;;4959562;28;20234;-60
2022/08/27 03:29:49;;;;;;;26.23;18.63;;;;;;;;;;4965907;28;20234;-60
2022/08/27 03:32:16;;;;;;;22.38;18.50;;;;;;;;;;4958434;28;20239;-59
2022/08/27 03:34:42;;;;;;;27.55;18.77;;;;;;;;;;4954479;28;20251;-59
2022/08/27 03:37:09;;;;;;;29.25;20.13;;;;;;;;;;4960667;28;20235;-60
2022/08/27 03:39:35;;;;;;;23.08;17.63;;;;;;;;;;4960256;28;20235;-59
2022/08/27 03:42:03;;;;;;;29.95;20.88;;;;;;;;;;4966758;28;20237;-59
2022/08/27 03:44:30;;;;;;;26.60;17.58;;;;;;;;;;4956716;28;20243;-60
2022/08/27 03:46:56;;;;;;;22.33;18.23;;;;;;;;;;4959027;28;20246;-59
2022/08/27 03:49:23;;;;;;;21.50;19.00;;;;;;;;;;4964289;28;20245;-59
2022/08/27 03:51:49;;;;;;;23.52;19.27;;;;;;;;;;4960744;28;20242;-60
2022/08/27 03:54:15;;;;;;;24.05;18.40;;;;;;;;;;4958506;28;20245;-59
2022/08/27 03:56:42;;;;;;;20.15;16.77;;;;;;;;;;4959886;28;20247;-59
2022/08/27 03:59:09;;;;;;;25.50;17.83;;;;;;;;;;4960991;28;20249;-59
2022/08/27 04:01:36;;;;;;;22.20;19.15;;;;;;;;;;4957795;28;20230;-59
2022/08/27 04:04:02;;;;;;;22.00;17.63;;;;;;;;;;4965193;28;20257;-61
2022/08/27 04:06:28;;;;;;;20.75;16.92;;;;;;;;;;4955118;28;22025;-60
2022/08/27 04:08:55;;;;;;;18.98;16.70;;;;;;;;;;4955336;28;20241;-60
2022/08/27 04:11:22;;;;;;;21.33;17.30;;;;;;;;;;4955801;28;20245;-60
2022/08/27 04:13:48;;;;;;;27.35;19.77;;;;;;;;;;4961075;28;20249;-58
2022/08/27 04:16:16;;;;;;;20.23;18.02;;;;;;;;;;4962060;28;20242;-60
2022/08/27 04:18:42;;;;;;;25.08;18.13;;;;;;;;;;4964950;28;20242;-60
2022/08/27 04:21:10;;;;;;;20.33;18.08;;;;;;;;;;4962895;28;20247;-61
2022/08/27 04:23:37;;;;;;;22.30;17.73;;;;;;;;;;4963512;28;20277;-60
2022/08/27 04:26:04;;;;;;;19.13;16.02;;;;;;;;;;4957022;28;20310;-62
2022/08/27 04:28:31;;;;;;;24.05;17.42;;;;;;;;;;4952178;28;20234;-61
2022/08/27 04:30:57;;;;;;;20.88;16.95;;;;;;;;;;4959498;28;20239;-60
2022/08/27 04:33:26;;;;;;;21.85;17.65;;;;;;;;;;4955546;28;20234;-60
2022/08/27 04:35:57;;;;;;;20.45;17.90;;;;;;;;;;4965838;28;20238;-61
2022/08/27 04:38:23;;;;;;;24.10;17.67;;;;;;;;;;4959610;28;20243;-61
2022/08/27 04:43:34;;;;;;;20.58;16.83;;;;;;;;;;4964261;28;20365;-60
2022/08/27 04:46:00;;;;;;;21.80;17.23;;;;;;;;;;4960056;28;20759;-60
2022/08/27 04:48:28;;;;;;;21.50;18.65;;;;;;;;;;4961775;28;20266;-60
2022/08/27 04:50:54;;;;;;;22.33;17.05;;;;;;;;;;4953739;28;20243;-60
2022/08/27 04:53:20;;;;;;;22.63;18.20;;;;;;;;;;4962914;28;20235;-60
2022/08/27 04:55:49;;;;;;;20.85;16.90;;;;;;;;;;4955104;28;20237;-59
2022/08/27 04:58:15;;;;;;;20.05;17.65;;;;;;;;;;4958677;28;20238;-61
2022/08/27 05:00:43;;;;;;;19.05;17.00;;;;;;;;;;4965727;28;20245;-61
2022/08/27 05:03:09;;;;;;;21.48;18.45;;;;;;;;;;4966488;28;20233;-60
2022/08/27 05:05:37;;;;;;;25.38;18.05;;;;;;;;;;4962151;28;20373;-60
2022/08/27 05:08:05;;;;;;;24.58;17.30;;;;;;;;;;4967251;28;20238;-61
2022/08/27 05:10:31;;;;;;;20.52;17.52;;;;;;;;;;4959964;28;20238;-60
2022/08/27 05:12:57;;;;;;;21.75;17.17;;;;;;;;;;4956921;28;20239;-60
2022/08/27 05:15:24;;;;;;;20.92;16.65;;;;;;;;;;4963221;28;20246;-59
2022/08/27 05:17:50;;;;;;;20.00;15.75;;;;;;;;;;4954232;28;20246;-60
2022/08/27 05:20:18;;;;;;;16.13;14.43;;;;;;;;;;4962407;28;20325;-60
2022/08/27 05:22:45;;;;;;;17.45;15.63;;;;;;;;;;4964340;28;20270;-60
2022/08/27 05:25:12;;;;;;;15.63;14.05;;;;;;;;;;4965862;28;20246;-60
2022/08/27 05:27:38;;;;;;;17.52;13.88;;;;;;;;;;4960421;28;20250;-61
2022/08/27 05:30:05;;;;;;;14.93;13.48;;;;;;;;;;4959342;28;20948;-59
2022/08/27 05:32:31;;;;;;;17.63;14.85;;;;;;;;;;4950449;28;20239;-60
2022/08/27 05:34:58;;;;;;;16.52;14.55;;;;;;;;;;4957584;28;20887;-58
2022/08/27 05:37:25;;;;;;;21.77;15.38;;;;;;;;;;4958224;28;20242;-58
2022/08/27 05:39:53;;;;;;;17.48;15.32;;;;;;;;;;4962598;28;20727;-59
2022/08/27 05:42:19;;;;;;;17.13;15.30;;;;;;;;;;4961547;28;20238;-58
2022/08/27 05:44:45;;;;;;;15.75;13.68;;;;;;;;;;4960250;28;20234;-59
2022/08/27 05:47:12;;;;;;;17.58;13.57;;;;;;;;;;4949481;28;20245;-60
2022/08/27 05:49:38;;;;;;;19.00;15.45;;;;;;;;;;4958959;28;20254;-60
2022/08/27 05:52:07;;;;;;;18.13;15.93;;;;;;;;;;4954210;28;20310;-61
2022/08/27 05:54:34;;;;;;;16.95;14.30;;;;;;;;;;4957935;28;20245;-60
2022/08/27 05:57:01;;;;;;;17.70;14.23;;;;;;;;;;4958376;28;20327;-61
2022/08/27 06:02:11;;;;;;;14.30;12.90;;;;;;;;;;4957749;28;20369;-61
2022/08/27 06:04:38;;;;;;;16.10;13.32;;;;;;;;;;4955160;28;20235;-60
2022/08/27 06:07:05;;;;;;;14.13;12.77;;;;;;;;;;4950202;28;20230;-61
2022/08/27 06:09:31;;;;;;;15.55;13.70;;;;;;;;;;4957617;28;20235;-60
2022/08/27 06:11:59;;;;;;;17.33;14.10;;;;;;;;;;4962506;28;20235;-61
2022/08/27 06:14:26;;;;;;;15.85;14.20;;;;;;;;;;4953586;28;20326;-59
2022/08/27 06:16:53;;;;;;;14.45;13.05;;;;;;;;;;4955477;28;20239;-60
2022/08/27 06:19:19;;;;;;;14.85;12.70;;;;;;;;;;4950988;28;20243;-59
2022/08/27 06:21:46;;;;;;;13.77;12.43;;;;;;;;;;4949256;28;20881;-59
2022/08/27 06:24:12;;;;;;;13.93;11.70;;;;;;;;;;4956686;28;20237;-60
2022/08/27 06:26:39;;;;;;;11.98;10.80;;;;;;;;;;4954862;28;20230;-60
2022/08/27 06:29:06;;;;;;;12.70;10.60;;;;;;;;;;4965695;28;20285;-59
2022/08/27 06:31:34;;;;;;;11.15;9.95;;;;;;;;;;4953786;28;20235;-59
2022/08/27 06:34:02;;;;;;;12.15;11.05;;;;;;;;;;4962106;28;20709;-60
2022/08/27 06:36:29;;;;;;;10.68;9.57;;;;;;;;;;4960674;28;20242;-59
2022/08/27 06:38:56;;;;;;;11.02;8.93;;;;;;;;;;4966481;28;20266;-58
2022/08/27 06:41:23;;;;;;;9.95;8.95;;;;;;;;;;4965272;28;20242;-60
2022/08/27 06:43:49;;;;;;;9.88;8.82;;;;;;;;;;4950803;28;20608;-59
2022/08/27 06:46:17;;;;;;;9.75;8.88;;;;;;;;;;4957073;28;20231;-59
2022/08/27 06:48:45;;;;;;;10.40;9.48;;;;;;;;;;4956883;28;20241;-58
2022/08/27 06:51:13;;;;;;;9.52;8.65;;;;;;;;;;4968976;28;20242;-59
2022/08/27 06:53:40;;;;;;;9.55;7.88;;;;;;;;;;4960000;28;20702;-61
2022/08/27 06:56:07;;;;;;;10.63;7.90;;;;;;;;;;4951624;28;20230;-60
2022/08/27 06:58:34;;;;;;;8.93;8.13;;;;;;;;;;4966175;28;20293;-59
2022/08/27 07:01:01;;;;;;;10.13;8.68;;;;;;;;;;4955461;28;20318;-60
2022/08/27 07:03:28;;;;;;;8.73;7.85;;;;;;;;;;4958475;28;20709;-59
2022/08/27 07:06:03;;;;;;;8.27;7.57;;;;;;;;;;4960983;28;20242;-61
2022/08/27 07:08:29;;;;;;;8.00;7.30;;;;;;;;;;4957354;28;20227;-61
2022/08/27 07:10:56;;;;;;;8.38;7.45;;;;;;;;;;4963654;28;20237;-60
2022/08/27 07:13:22;;;;;;;8.38;7.57;;;;;;;;;;4956553;28;20270;-60
2022/08/27 07:15:48;;;;;;;8.55;7.85;;;;;;;;;;4960904;28;20293;-58
2022/08/27 07:18:15;;;;;;;9.82;8.25;;;;;;;;;;4955946;28;20694;-61
2022/08/27 07:20:41;;;;;;;9.20;8.20;;;;;;;;;;4956870;28;20315;-60
2022/08/27 07:23:09;;;;;;;8.90;7.93;;;;;;;;;;4957795;28;20226;-60
2022/08/27 07:25:35;;;;;;;8.32;7.53;;;;;;;;;;4958514;28;20231;-61
2022/08/27 07:28:02;;;;;;;9.63;7.78;;;;;;;;;;4964056;28;20226;-60
2022/08/27 07:30:28;;;;;;;9.48;7.88;;;;;;;;;;4949333;28;20243;-60
2022/08/27 07:32:54;;;;;;;7.95;7.35;;;;;;;;;;4957447;28;20239;-61
2022/08/27 07:35:21;;;;;;;8.95;8.23;;;;;;;;;;4954778;28;20247;-59
2022/08/27 07:37:47;;;;;;;8.73;7.93;;;;;;;;;;4955730;28;20238;-59
2022/08/27 07:40:15;;;;;;;8.73;7.93;;;;;;;;;;4958488;28;20628;-59
2022/08/27 07:45:26;;;;;;;9.80;8.63;;;;;;;;;;4963303;28;20799;-60
2022/08/27 07:47:53;;;;;;;10.48;9.02;;;;;;;;;;4960858;28;20238;-62
2022/08/27 07:50:20;;;;;;;11.10;9.90;;;;;;;;;;4959609;28;20713;-60
2022/08/27 07:52:46;;;;;;;10.73;9.10;;;;;;;;;;4960685;28;20316;-59
2022/08/27 07:55:13;;;;;;;10.80;9.63;;;;;;;;;;4953617;28;20243;-61
2022/08/27 07:57:41;;;;;;;9.27;8.38;;;;;;;;;;4959534;28;20232;-60
2022/08/27 08:00:09;;;;;;;10.38;9.20;;;;;;;;;;4954270;28;20238;-60
2022/08/27 08:02:35;;;;;;;10.48;9.45;;;;;;;;;;4961114;28;20616;-62
2022/08/27 08:05:02;;;;;;;9.75;8.30;;;;;;;;;;4961418;28;20321;-61
2022/08/27 08:07:28;;;;;;;9.75;8.65;;;;;;;;;;4960846;28;20329;-60
2022/08/27 08:09:54;;;;;;;9.45;8.55;;;;;;;;;;4956426;28;20793;-59
2022/08/27 08:12:21;;;;;;;9.77;8.70;;;;;;;;;;4956479;28;20333;-60
2022/08/27 08:14:49;;;;;;;8.63;7.75;;;;;;;;;;4964609;28;20234;-62
2022/08/27 08:17:15;;;;;;;9.48;8.48;;;;;;;;;;4955241;28;20238;-61
2022/08/27 08:19:41;;;;;;;9.35;8.57;;;;;;;;;;4963430;28;20227;-60
2022/08/27 08:22:08;;;;;;;8.30;7.50;;;;;;;;;;4956023;28;20788;-60
2022/08/27 08:24:35;;;;;;;12.40;9.63;;;;;;;;;;4953967;28;21021;-60
2022/08/27 08:27:01;;;;;;;11.00;9.38;;;;;;;;;;4962275;28;20230;-60
2022/08/27 08:29:30;;;;;;;10.18;9.13;;;;;;;;;;4957086;28;20227;-60
2022/08/27 08:31:58;;;;;;;9.23;8.43;;;;;;;;;;4961535;28;20248;-60
2022/08/27 08:34:24;;;;;;;9.77;8.88;;;;;;;;;;4961971;28;20242;-61
2022/08/27 08:36:51;;;;;;;12.50;9.30;;;;;;;;;;4965556;28;20243;-60
2022/08/27 08:39:18;;;;;;;10.80;9.13;;;;;;;;;;4962337;28;20241;-59
2022/08/27 08:41:48;;;;;;;11.15;9.02;;;;;;;;;;4960398;28;20255;-61
2022/08/27 08:44:19;;;;;;;9.63;8.63;;;;;;;;;;4952162;28;20603;-61
2022/08/27 08:46:47;;;;;;;11.55;8.70;;;;;;;;;;4962355;28;20234;-60
2022/08/27 08:49:17;;;;;;;10.07;9.07;;;;;;;;;;4960789;28;20233;-60
2022/08/27 08:51:44;;;;;;;11.50;9.20;;;;;;;;;;4954887;28;20239;-60
2022/08/27 08:54:15;;;;;;;10.02;9.07;;;;;;;;;;4957298;28;20249;-59
2022/08/27 08:56:43;;;;;;;9.00;7.93;;;;;;;;;;4957728;28;20227;-60
2022/08/27 08:59:14;;;;;;;12.00;7.95;;;;;;;;;;4955428;28;20246;-61
2022/08/27 09:01:41;;;;;;;8.55;7.63;;;;;;;;;;4954806;28;20235;-60
2022/08/27 09:04:10;;;;;;;9.25;8.35;;;;;;;;;;4956445;28;20239;-59
2022/08/27 09:06:40;;;;;;;8.98;8.07;;;;;;;;;;4955613;28;20238;-60
2022/08/27 09:09:11;;;;;;;8.43;7.55;;;;;;;;;;4959728;28;20235;-60
2022/08/27 09:11:39;;;;;;;11.38;7.95;;;;;;;;;;4963872;28;20257;-60
2022/08/27 09:14:07;;;;;;;8.77;7.50;;;;;;;;;;4961382;28;20237;-60
2022/08/27 09:16:33;;;;;;;8.05;7.35;;;;;;;;;;4948520;28;20239;-61
2022/08/27 09:19:01;;;;;;;8.77;7.88;;;;;;;;;;4960546;28;20234;-59
2022/08/27 09:21:32;;;;;;;6.82;6.28;;;;;;;;;;4952893;28;20242;-59
2022/08/27 09:24:05;;;;;;;11.95;8.80;;;;;;;;;;4958960;28;20242;-57
2022/08/27 09:26:33;;;;;;;8.82;7.93;;;;;;;;;;4967521;28;20582;-57
2022/08/27 09:29:17;;;;;;;8.15;7.45;;;;;;;;;;4964320;28;20226;-60
2022/08/27 09:31:47;;;;;;;8.52;7.68;;;;;;;;;;4961331;28;20333;-59
2022/08/27 09:34:14;;;;;;;8.13;7.40;;;;;;;;;;4957159;28;20234;-60
2022/08/27 09:37:05;;;;;;;7.95;7.13;;;;;;;;;;4951987;28;20257;-59
2022/08/27 09:39:45;;;;;;;7.75;7.00;;;;;;;;;;4945269;28;20254;-59
2022/08/27 09:42:22;;;;;;;9.82;7.75;;;;;;;;;;4956634;28;20246;-59
2022/08/27 09:44:48;;;;;;;9.18;8.48;;;;;;;;;;4955482;28;20242;-58
2022/08/27 09:47:15;;;;;;;7.43;6.82;;;;;;;;;;4952198;28;20243;-59
2022/08/27 09:49:42;;;;;;;7.88;7.10;;;;;;;;;;4950659;28;20234;-59
2022/08/27 09:52:09;;;;;;;7.60;6.78;;;;;;;;;;4958133;28;20608;-59
2022/08/27 09:54:41;;;;;;;7.38;6.78;;;;;;;;;;4961315;28;20230;-58
2022/08/27 09:57:09;;;;;;;12.45;9.05;;;;;;;;;;4959757;28;20234;-59
2022/08/27 09:59:37;;;;;;;8.60;7.80;;;;;;;;;;4954665;28;20882;-57
2022/08/27 10:02:05;;;;;;;12.57;8.23;;;;;;;;;;4956465;28;20239;-58
2022/08/27 10:04:35;;;;;;;8.13;7.38;;;;;;;;;;4956419;28;20297;-58
2022/08/27 10:07:12;;;;;;;9.13;8.32;;;;;;;;;;4959016;28;20321;-58
2022/08/27 10:09:41;;;;;;;9.23;7.50;;;;;;;;;;4958832;28;20246;-62
2022/08/27 10:12:10;;;;;;;8.77;7.50;;;;;;;;;;4960172;28;20575;-59
2022/08/27 10:14:38;;;;;;;7.75;7.13;;;;;;;;;;4958794;28;20231;-58
2022/08/27 10:17:10;;;;;;;9.75;7.35;;;;;;;;;;4957534;28;20270;-60
2022/08/27 10:19:50;;;;;;;8.23;7.40;;;;;;;;;;4957454;28;20231;-58
2022/08/27 10:22:20;;;;;;;7.57;6.68;;;;;;;;;;4964473;28;20712;-59
2022/08/27 10:24:53;;;;;;;8.45;7.47;;;;;;;;;;4946610;28;20231;-58
2022/08/27 10:27:24;;;;;;;7.50;7.00;;;;;;;;;;4957414;28;20235;-60
2022/08/27 10:29:54;;;;;;;7.18;6.40;;;;;;;;;;4952941;28;20238;-58
2022/08/27 10:32:30;;;;;;;7.35;6.63;;;;;;;;;;4961168;28;20239;-58
2022/08/27 10:35:04;;;;;;;10.00;6.75;;;;;;;;;;4959109;28;20227;-59
2022/08/27 10:37:34;;;;;;;8.30;6.82;;;;;;;;;;4946094;28;20230;-58
2022/08/27 10:40:06;;;;;;;6.97;6.38;;;;;;;;;;4950419;28;20709;-59
2022/08/27 10:42:37;;;;;;;7.30;6.60;;;;;;;;;;4954636;28;20330;-59
2022/08/27 10:45:08;;;;;;;7.18;6.47;;;;;;;;;;4960962;28;20250;-60
2022/08/27 10:47:41;;;;;;;6.68;6.07;;;;;;;;;;4960082;28;20232;-59
2022/08/27 10:50:10;;;;;;;7.07;5.85;;;;;;;;;;4963950;28;20230;-60
2022/08/27 10:52:41;;;;;;;6.93;6.32;;;;;;;;;;4958860;28;20226;-60
2022/08/27 10:55:12;;;;;;;7.00;5.50;;;;;;;;;;4956341;28;20235;-59
2022/08/27 10:57:44;;;;;;;7.10;6.40;;;;;;;;;;4957701;28;20230;-59
2022/08/27 11:00:13;;;;;;;7.97;5.45;;;;;;;;;;4958474;28;20241;-59
2022/08/27 11:02:42;;;;;;;5.55;5.05;;;;;;;;;;4957678;28;20243;-59
2022/08/27 11:05:13;;;;;;;5.55;5.15;;;;;;;;;;4960791;28;20235;-60
2022/08/27 11:07:41;;;;;;;7.28;6.25;;;;;;;;;;4956910;28;20247;-59
2022/08/27 11:10:10;;;;;;;5.68;5.18;;;;;;;;;;4961608;28;20235;-61
2022/08/27 11:12:38;;;;;;;5.95;5.43;;;;;;;;;;4961002;28;20293;-59
2022/08/27 11:15:09;;;;;;;5.28;4.82;;;;;;;;;;4960491;28;20238;-59
2022/08/27 11:17:38;;;;;;;6.47;5.03;;;;;;;;;;4956301;28;20748;-59
2022/08/27 11:20:08;;;;;;;5.50;5.10;;;;;;;;;;4961900;28;20287;-58
2022/08/27 11:22:37;;;;;;;6.40;5.75;;;;;;;;;;4961705;28;20235;-59
2022/08/27 11:25:08;;;;;;;5.47;5.07;;;;;;;;;;4964278;28;20254;-59
2022/08/27 11:27:36;;;;;;;4.65;4.32;;;;;;;;;;4963471;28;20237;-59
2022/08/27 11:30:05;;;;;;;5.60;5.00;;;;;;;;;;4966726;28;20242;-59
2022/08/27 11:32:37;;;;;;;7.70;5.32;;;;;;;;;;4962441;28;20239;-60
2022/08/27 11:35:08;;;;;;;5.38;4.88;;;;;;;;;;4962758;28;20614;-59
2022/08/27 11:37:40;;;;;;;4.60;4.20;;;;;;;;;;4959043;28;20718;-60
2022/08/27 11:40:20;;;;;;;4.47;4.07;;;;;;;;;;4961459;28;20227;-59
2022/08/27 11:42:47;;;;;;;8.48;4.90;;;;;;;;;;4964424;28;20234;-60
2022/08/27 11:45:16;;;;;;;5.15;4.63;;;;;;;;;;4963970;28;20239;-59
2022/08/27 11:47:52;;;;;;;8.23;5.95;;;;;;;;;;4960537;28;20226;-61
2022/08/27 11:50:19;;;;;;;6.47;5.45;;;;;;;;;;4966715;28;20253;-59
2022/08/27 11:52:55;;;;;;;7.57;5.72;;;;;;;;;;4966374;28;20249;-59
2022/08/27 11:55:24;;;;;;;7.78;5.97;;;;;;;;;;4965904;28;20239;-59
2022/08/27 11:58:04;;;;;;;5.70;5.20;;;;;;;;;;4961363;28;20604;-59
2022/08/27 12:00:32;;;;;;;6.13;5.53;;;;;;;;;;4954387;28;20242;-59
2022/08/27 12:03:00;;;;;;;6.28;5.72;;;;;;;;;;4960986;28;20669;-58
2022/08/27 12:05:34;;;;;;;7.78;5.80;;;;;;;;;;4962415;28;20659;-59
2022/08/27 12:08:11;;;;;;;7.32;5.80;;;;;;;;;;4963683;28;20241;-59
2022/08/27 12:10:44;;;;;;;6.93;6.20;;;;;;;;;;4964931;28;20611;-59
2022/08/27 12:13:17;;;;;;;6.30;5.00;;;;;;;;;;4956758;28;20614;-58
2022/08/27 12:15:49;;;;;;;6.05;5.53;;;;;;;;;;4964463;28;20238;-59
2022/08/27 12:18:25;;;;;;;6.40;5.90;;;;;;;;;;4956439;28;20242;-59
2022/08/27 12:20:55;;;;;;;6.30;5.22;;;;;;;;;;4963803;28;20230;-59
2022/08/27 12:26:16;;;;;;;7.13;6.53;;;;;;;;;;4955929;28;20234;-59
2022/08/27 12:28:42;;;;;;;6.85;6.22;;;;;;;;;;4962438;28;20237;-59
2022/08/27 12:31:09;;;;;;;8.45;7.15;;;;;;;;;;4960788;28;20231;-59
2022/08/27 12:33:40;;;;;;;6.85;5.93;;;;;;;;;;4963531;28;20910;-59
2022/08/27 12:36:09;;;;;;;6.22;5.65;;;;;;;;;;4957123;28;20701;-60
2022/08/27 12:38:41;;;;;;;6.65;6.10;;;;;;;;;;4960313;28;20246;-61
2022/08/27 12:41:08;;;;;;;9.13;5.82;;;;;;;;;;4965909;28;20266;-59
2022/08/27 12:43:37;;;;;;;9.38;5.95;;;;;;;;;;4960122;28;20246;-60
2022/08/27 12:46:06;;;;;;;5.80;5.15;;;;;;;;;;4954134;28;20804;-59
2022/08/27 12:48:34;;;;;;;4.93;4.53;;;;;;;;;;4961046;28;20764;-58
2022/08/27 12:51:03;;;;;;;6.32;5.75;;;;;;;;;;4960589;28;20243;-59
2022/08/27 12:53:38;;;;;;;9.90;5.95;;;;;;;;;;4955870;28;20238;-59
2022/08/27 12:56:19;;;;;;;6.35;5.47;;;;;;;;;;4958662;28;20245;-58
2022/08/27 12:58:49;;;;;;;6.00;5.40;;;;;;;;;;4963534;28;20242;-59
2022/08/27 13:01:24;;;;;;;5.75;5.18;;;;;;;;;;4962920;28;20246;-60
2022/08/27 13:03:52;;;;;;;5.30;4.82;;;;;;;;;;4958173;28;20603;-58
2022/08/27 13:06:23;;;;;;;6.13;5.40;;;;;;;;;;4962236;28;20272;-59
2022/08/27 13:08:52;;;;;;;6.60;6.00;;;;;;;;;;4961293;28;20234;-58
2022/08/27 13:11:22;;;;;;;9.02;6.50;;;;;;;;;;4963637;28;20297;-58
2022/08/27 13:13:49;;;;;;;8.15;5.65;;;;;;;;;;4953630;28;20314;-58
2022/08/27 13:16:16;;;;;;;5.50;5.00;;;;;;;;;;4956239;28;20247;-58
2022/08/27 13:18:46;;;;;;;5.97;5.40;;;;;;;;;;4954192;28;20613;-59
2022/08/27 13:21:14;;;;;;;6.10;5.55;;;;;;;;;;4956838;28;20608;-58
2022/08/27 13:23:45;;;;;;;6.80;5.13;;;;;;;;;;4962500;28;20293;-59
2022/08/27 13:26:12;;;;;;;6.70;5.32;;;;;;;;;;4963964;28;20231;-59
2022/08/27 13:28:39;;;;;;;5.38;4.97;;;;;;;;;;4964950;28;20241;-59
2022/08/27 13:31:07;;;;;;;5.75;5.15;;;;;;;;;;4962846;28;20242;-59
2022/08/27 13:33:34;;;;;;;8.27;5.72;;;;;;;;;;4963728;28;20755;-58
2022/08/27 13:36:02;;;;;;;5.57;5.07;;;;;;;;;;4961413;28;20242;-58
2022/08/27 13:38:30;;;;;;;5.47;5.00;;;;;;;;;;4958359;28;20301;-58
2022/08/27 13:40:59;;;;;;;6.18;5.63;;;;;;;;;;4963597;28;20241;-58
2022/08/27 13:43:30;;;;;;;9.25;5.47;;;;;;;;;;4960627;28;20234;-59
2022/08/27 13:45:58;;;;;;;5.15;4.68;;;;;;;;;;4961728;28;20239;-59
2022/08/27 13:48:24;;;;;;;7.18;4.65;;;;;;;;;;4961018;28;20399;-59
2022/08/27 13:50:52;;;;;;;4.72;4.32;;;;;;;;;;4949641;28;20226;-59
2022/08/27 13:56:05;;;;;;;4.78;3.88;;;;;;;;;;4957462;28;20305;-58
2022/08/27 13:58:33;;;;;;;3.95;3.65;;;;;;;;;;4961558;28;20810;-59
2022/08/27 14:01:08;;;;;;;6.03;4.20;;;;;;;;;;4953968;28;20294;-58
2022/08/27 14:03:35;;;;;;;3.92;3.63;;;;;;;;;;4960601;28;20238;-58
2022/08/27 14:06:02;;;;;;;4.03;3.60;;;;;;;;;;4959825;28;20312;-60
2022/08/27 14:08:30;;;;;;;4.63;4.07;;;;;;;;;;4956413;28;20241;-59
2022/08/27 14:11:02;;;;;;;4.55;4.15;;;;;;;;;;4960968;28;20693;-60
2022/08/27 14:13:36;;;;;;;4.35;3.95;;;;;;;;;;4958968;28;20245;-58
2022/08/27 14:16:12;;;;;;;4.70;4.30;;;;;;;;;;4957635;28;20261;-60
2022/08/27 14:18:39;;;;;;;6.10;5.50;;;;;;;;;;4963868;28;20234;-62
2022/08/27 14:21:06;;;;;;;8.27;6.10;;;;;;;;;;4956347;28;20243;-61
2022/08/27 14:23:32;;;;;;;11.35;6.70;;;;;;;;;;4968073;28;20238;-62
2022/08/27 14:25:59;;;;;;;8.38;6.78;;;;;;;;;;4953616;28;20239;-55
2022/08/27 14:28:26;;;;;;;12.27;7.25;;;;;;;;;;4961087;28;20238;-55
2022/08/27 14:30:54;;;;;;;10.18;7.85;;;;;;;;;;4963945;28;20237;-56
2022/08/27 14:33:20;;;;;;;8.18;7.13;;;;;;;;;;4954511;28;20418;-54
2022/08/27 14:35:47;;;;;;;9.77;8.02;;;;;;;;;;4958983;28;20847;-54
2022/08/27 14:38:16;;;;;;;8.10;7.35;;;;;;;;;;4959029;28;20247;-55
2022/08/27 14:40:43;;;;;;;10.00;7.82;;;;;;;;;;4960412;28;20239;-56
2022/08/27 14:43:09;;;;;;;9.25;8.55;;;;;;;;;;4962824;28;20385;-56
2022/08/27 14:45:37;;;;;;;9.88;8.95;;;;;;;;;;4957312;28;20248;-55
2022/08/27 14:48:06;;;;;;;9.10;8.35;;;;;;;;;;4960538;28;20234;-54
2022/08/27 14:50:32;;;;;;;10.18;9.23;;;;;;;;;;4962296;28;20615;-54
2022/08/27 14:52:58;;;;;;;10.35;9.48;;;;;;;;;;4965560;28;20237;-56